RJNF(METAR)
01/23 16:00
RJNF 230700Z 35013KT 9999 FEW010 BKN040 BKNXXX 01/M05 Q1019 RMK
A3009=
戻る
トップページへ戻る
IMOC Co,.Ltd.